sensor_id;sensor_type;location;lat;lon;timestamp;pressure;altitude;pressure_sealevel;temperature;humidity
15308;BME280;7755;52.208;6.964;2023-03-03T00:01:13;102120.31;;;1.90;100.00
15308;BME280;7755;52.208;6.964;2023-03-03T00:05:17;102128.78;;;1.86;100.00
15308;BME280;7755;52.208;6.964;2023-03-03T00:09:20;102118.75;;;1.88;100.00
15308;BME280;7755;52.208;6.964;2023-03-03T00:13:25;102125.50;;;1.92;100.00
15308;BME280;7755;52.208;6.964;2023-03-03T00:17:31;102114.19;;;1.98;100.00
15308;BME280;7755;52.208;6.964;2023-03-03T00:21:40;102120.50;;;2.07;100.00
15308;BME280;7755;52.208;6.964;2023-03-03T00:25:44;102117.81;;;2.07;100.00
15308;BME280;7755;52.208;6.964;2023-03-03T00:29:49;102127.53;;;2.08;100.00
15308;BME280;7755;52.208;6.964;2023-03-03T00:34:00;102131.81;;;2.01;100.00
15308;BME280;7755;52.208;6.964;2023-03-03T00:38:13;102122.78;;;2.02;100.00
15308;BME280;7755;52.208;6.964;2023-03-03T00:42:18;102121.78;;;2.03;100.00
15308;BME280;7755;52.208;6.964;2023-03-03T00:46:22;102120.94;;;2.02;100.00
15308;BME280;7755;52.208;6.964;2023-03-03T00:50:30;102122.00;;;2.09;100.00
15308;BME280;7755;52.208;6.964;2023-03-03T00:54:34;102118.91;;;2.14;100.00
15308;BME280;7755;52.208;6.964;2023-03-03T00:58:37;102115.16;;;2.25;100.00
15308;BME280;7755;52.208;6.964;2023-03-03T01:02:41;102114.84;;;2.28;100.00
15308;BME280;7755;52.208;6.964;2023-03-03T01:06:49;102118.69;;;2.25;100.00
15308;BME280;7755;52.208;6.964;2023-03-03T01:10:54;102111.47;;;2.26;100.00
15308;BME280;7755;52.208;6.964;2023-03-03T01:14:58;102120.53;;;2.25;100.00
15308;BME280;7755;52.208;6.964;2023-03-03T01:19:01;102111.31;;;2.27;100.00
15308;BME280;7755;52.208;6.964;2023-03-03T01:23:06;102108.31;;;2.30;100.00
15308;BME280;7755;52.208;6.964;2023-03-03T01:27:09;102111.16;;;2.29;100.00
15308;BME280;7755;52.208;6.964;2023-03-03T01:31:12;102110.94;;;2.22;100.00
15308;BME280;7755;52.208;6.964;2023-03-03T01:35:15;102096.91;;;2.28;100.00
15308;BME280;7755;52.208;6.964;2023-03-03T01:39:20;102108.97;;;2.24;100.00
15308;BME280;7755;52.208;6.964;2023-03-03T01:43:25;102104.72;;;2.22;100.00
15308;BME280;7755;52.208;6.964;2023-03-03T01:47:29;102114.78;;;2.19;100.00
15308;BME280;7755;52.208;6.964;2023-03-03T01:51:37;102116.06;;;2.15;100.00
15308;BME280;7755;52.208;6.964;2023-03-03T01:55:49;102118.28;;;2.20;100.00
15308;BME280;7755;52.208;6.964;2023-03-03T01:59:54;102123.81;;;2.18;100.00
15308;BME280;7755;52.208;6.964;2023-03-03T02:04:00;102111.94;;;2.21;100.00
15308;BME280;7755;52.208;6.964;2023-03-03T02:08:04;102117.44;;;2.19;100.00
15308;BME280;7755;52.208;6.964;2023-03-03T02:12:13;102111.09;;;2.21;100.00
15308;BME280;7755;52.208;6.964;2023-03-03T02:16:20;102123.81;;;2.18;100.00
15308;BME280;7755;52.208;6.964;2023-03-03T02:20:31;102118.69;;;2.25;100.00
15308;BME280;7755;52.208;6.964;2023-03-03T02:24:43;102126.44;;;2.28;100.00
15308;BME280;7755;52.208;6.964;2023-03-03T02:28:49;102108.03;;;2.33;100.00
15308;BME280;7755;52.208;6.964;2023-03-03T02:32:53;102107.72;;;2.36;100.00
15308;BME280;7755;52.208;6.964;2023-03-03T02:36:57;102107.28;;;2.41;100.00
15308;BME280;7755;52.208;6.964;2023-03-03T02:41:03;102119.44;;;2.35;100.00
15308;BME280;7755;52.208;6.964;2023-03-03T02:45:12;102111.88;;;2.31;100.00
15308;BME280;7755;52.208;6.964;2023-03-03T02:49:18;102116.09;;;2.33;100.00
15308;BME280;7755;52.208;6.964;2023-03-03T02:53:22;102104.19;;;2.36;100.00
15308;BME280;7755;52.208;6.964;2023-03-03T02:57:26;102126.66;;;2.35;100.00
15308;BME280;7755;52.208;6.964;2023-03-03T03:01:31;102115.94;;;2.35;100.00
15308;BME280;7755;52.208;6.964;2023-03-03T03:05:40;102102.34;;;2.36;100.00
15308;BME280;7755;52.208;6.964;2023-03-03T03:09:43;102101.91;;;2.41;100.00
15308;BME280;7755;52.208;6.964;2023-03-03T03:13:47;102109.50;;;2.45;100.00
15308;BME280;7755;52.208;6.964;2023-03-03T03:17:52;102109.88;;;2.51;100.00
15308;BME280;7755;52.208;6.964;2023-03-03T03:21:56;102104.38;;;2.52;100.00
15308;BME280;7755;52.208;6.964;2023-03-03T03:26:00;102100.00;;;2.51;100.00
15308;BME280;7755;52.208;6.964;2023-03-03T03:30:04;102108.06;;;2.51;100.00
15308;BME280;7755;52.208;6.964;2023-03-03T03:34:10;102116.63;;;2.55;100.00
15308;BME280;7755;52.208;6.964;2023-03-03T03:38:13;102114.56;;;2.49;100.00
15308;BME280;7755;52.208;6.964;2023-03-03T03:42:17;102112.88;;;2.47;100.00
15308;BME280;7755;52.208;6.964;2023-03-03T03:46:21;102116.56;;;2.46;100.00
15308;BME280;7755;52.208;6.964;2023-03-03T03:50:26;102125.63;;;2.45;100.00
15308;BME280;7755;52.208;6.964;2023-03-03T03:54:29;102115.78;;;2.36;100.00
15308;BME280;7755;52.208;6.964;2023-03-03T03:58:32;102120.00;;;2.39;100.00
15308;BME280;7755;52.208;6.964;2023-03-03T04:02:40;102114.72;;;2.47;100.00
15308;BME280;7755;52.208;6.964;2023-03-03T04:06:49;102111.44;;;2.53;100.00
15308;BME280;7755;52.208;6.964;2023-03-03T04:10:51;102116.41;;;2.48;100.00
15308;BME280;7755;52.208;6.964;2023-03-03T04:14:55;102118.78;;;2.51;100.00
15308;BME280;7755;52.208;6.964;2023-03-03T04:19:01;102115.72;;;2.46;100.00
15308;BME280;7755;52.208;6.964;2023-03-03T04:23:08;102114.31;;;2.42;100.00
15308;BME280;7755;52.208;6.964;2023-03-03T04:27:11;102115.72;;;2.46;100.00
15308;BME280;7755;52.208;6.964;2023-03-03T04:31:16;102123.94;;;2.44;100.00
15308;BME280;7755;52.208;6.964;2023-03-03T04:35:22;102117.56;;;2.45;100.00
15308;BME280;7755;52.208;6.964;2023-03-03T04:39:28;102112.56;;;2.51;100.00
15308;BME280;7755;52.208;6.964;2023-03-03T04:43:32;102118.78;;;2.51;100.00
15308;BME280;7755;52.208;6.964;2023-03-03T04:47:37;102125.38;;;2.57;100.00
15308;BME280;7755;52.208;6.964;2023-03-03T04:51:41;102110.19;;;2.65;100.00
15308;BME280;7755;52.208;6.964;2023-03-03T04:55:49;102117.09;;;2.68;100.00
15308;BME280;7755;52.208;6.964;2023-03-03T04:59:52;102119.78;;;2.68;100.00
15308;BME280;7755;52.208;6.964;2023-03-03T05:03:56;102126.59;;;2.62;100.00
15308;BME280;7755;52.208;6.964;2023-03-03T05:07:59;102120.41;;;2.62;100.00
15308;BME280;7755;52.208;6.964;2023-03-03T05:12:04;102131.69;;;2.65;100.00
15308;BME280;7755;52.208;6.964;2023-03-03T05:16:09;102130.00;;;2.64;100.00
15308;BME280;7755;52.208;6.964;2023-03-03T05:20:12;102121.78;;;2.66;100.00
15308;BME280;7755;52.208;6.964;2023-03-03T05:24:16;102117.53;;;2.63;100.00
15308;BME280;7755;52.208;6.964;2023-03-03T05:28:20;102122.00;;;2.72;100.00
15308;BME280;7755;52.208;6.964;2023-03-03T05:32:23;102123.38;;;2.77;100.00
15308;BME280;7755;52.208;6.964;2023-03-03T05:36:26;102129.47;;;2.79;100.00
15308;BME280;7755;52.208;6.964;2023-03-03T05:40:30;102130.91;;;2.73;100.00
15308;BME280;7755;52.208;6.964;2023-03-03T05:44:36;102138.13;;;2.72;100.00
15308;BME280;7755;52.208;6.964;2023-03-03T05:48:41;102136.44;;;2.71;100.00
15308;BME280;7755;52.208;6.964;2023-03-03T05:52:54;102139.13;;;2.71;100.00
15308;BME280;7755;52.208;6.964;2023-03-03T05:57:05;102135.78;;;2.78;100.00
15308;BME280;7755;52.208;6.964;2023-03-03T06:01:10;102135.88;;;2.68;100.00
15308;BME280;7755;52.208;6.964;2023-03-03T06:05:13;102136.34;;;2.63;100.00
15308;BME280;7755;52.208;6.964;2023-03-03T06:09:16;102149.53;;;2.57;100.00
15308;BME280;7755;52.208;6.964;2023-03-03T06:13:27;102142.47;;;2.56;100.00
15308;BME280;7755;52.208;6.964;2023-03-03T06:17:48;102148.31;;;2.51;100.00
15308;BME280;7755;52.208;6.964;2023-03-03T06:22:02;102154.66;;;2.50;100.00
15308;BME280;7755;52.208;6.964;2023-03-03T06:26:05;102163.72;;;2.49;100.00
15308;BME280;7755;52.208;6.964;2023-03-03T06:30:10;102154.91;;;2.39;100.00
15308;BME280;7755;52.208;6.964;2023-03-03T06:34:15;102157.75;;;2.37;100.00
15308;BME280;7755;52.208;6.964;2023-03-03T06:38:19;102157.75;;;2.37;100.00
15308;BME280;7755;52.208;6.964;2023-03-03T06:42:22;102164.22;;;2.35;100.00
15308;BME280;7755;52.208;6.964;2023-03-03T06:46:25;102169.59;;;2.35;100.00
15308;BME280;7755;52.208;6.964;2023-03-03T06:50:30;102181.94;;;2.28;100.00
15308;BME280;7755;52.208;6.964;2023-03-03T06:54:34;102169.91;;;2.32;100.00
15308;BME280;7755;52.208;6.964;2023-03-03T06:58:38;102178.97;;;2.31;100.00
15308;BME280;7755;52.208;6.964;2023-03-03T07:02:41;102179.34;;;2.36;100.00
15308;BME280;7755;52.208;6.964;2023-03-03T07:06:46;102183.63;;;2.29;100.00
15308;BME280;7755;52.208;6.964;2023-03-03T07:10:50;102184.72;;;2.36;100.00
15308;BME280;7755;52.208;6.964;2023-03-03T07:14:57;102194.31;;;2.38;100.00
15308;BME280;7755;52.208;6.964;2023-03-03T07:19:13;102196.84;;;2.40;100.00
15308;BME280;7755;52.208;6.964;2023-03-03T07:23:30;102201.78;;;2.44;100.00
15308;BME280;7755;52.208;6.964;2023-03-03T07:27:36;102200.22;;;2.42;100.00
15308;BME280;7755;52.208;6.964;2023-03-03T07:31:40;102210.66;;;2.45;100.00
15308;BME280;7755;52.208;6.964;2023-03-03T07:35:46;102210.75;;;2.53;100.00
15308;BME280;7755;52.208;6.964;2023-03-03T07:39:50;102225.09;;;2.62;100.00
15308;BME280;7755;52.208;6.964;2023-03-03T07:44:00;102232.03;;;2.64;100.00
15308;BME280;7755;52.208;6.964;2023-03-03T07:48:16;102240.22;;;2.63;100.00
15308;BME280;7755;52.208;6.964;2023-03-03T07:52:27;102247.13;;;2.65;100.00
15308;BME280;7755;52.208;6.964;2023-03-03T07:56:34;102246.53;;;2.71;100.00
15308;BME280;7755;52.208;6.964;2023-03-03T08:05:33;102247.75;;;2.77;100.00
15308;BME280;7755;52.208;6.964;2023-03-03T08:09:47;102253.06;;;2.87;100.00
15308;BME280;7755;52.208;6.964;2023-03-03T08:13:54;102259.69;;;2.92;100.00
15308;BME280;7755;52.208;6.964;2023-03-03T08:18:00;102261.28;;;2.85;100.00
15308;BME280;7755;52.208;6.964;2023-03-03T08:22:11;102262.41;;;2.83;100.00
15308;BME280;7755;52.208;6.964;2023-03-03T08:26:17;102266.19;;;2.90;100.00
15308;BME280;7755;52.208;6.964;2023-03-03T08:30:21;102265.06;;;2.92;100.00
15308;BME280;7755;52.208;6.964;2023-03-03T08:34:32;102271.63;;;2.98;100.00
15308;BME280;7755;52.208;6.964;2023-03-03T08:38:39;102265.66;;;3.04;100.00
15308;BME280;7755;52.208;6.964;2023-03-03T08:42:43;102262.97;;;3.04;100.00
15308;BME280;7755;52.208;6.964;2023-03-03T08:46:49;102261.59;;;3.00;100.00
15308;BME280;7755;52.208;6.964;2023-03-03T08:50:52;102263.53;;;3.08;100.00
15308;BME280;7755;52.208;6.964;2023-03-03T08:54:55;102258.84;;;3.10;100.00
15308;BME280;7755;52.208;6.964;2023-03-03T08:58:58;102267.69;;;3.20;100.00
15308;BME280;7755;52.208;6.964;2023-03-03T09:03:06;102259.22;;;3.33;100.00
15308;BME280;7755;52.208;6.964;2023-03-03T09:07:09;102261.75;;;3.34;100.00
15308;BME280;7755;52.208;6.964;2023-03-03T09:11:13;102267.13;;;3.34;100.00
15308;BME280;7755;52.208;6.964;2023-03-03T09:15:22;102269.56;;;3.45;100.00
15308;BME280;7755;52.208;6.964;2023-03-03T09:19:29;102269.16;;;3.58;100.00
15308;BME280;7755;52.208;6.964;2023-03-03T09:23:34;102270.00;;;3.59;100.00
15308;BME280;7755;52.208;6.964;2023-03-03T09:27:38;102275.31;;;3.68;100.00
15308;BME280;7755;52.208;6.964;2023-03-03T09:31:44;102282.91;;;3.73;100.00
15308;BME280;7755;52.208;6.964;2023-03-03T09:35:51;102275.53;;;3.75;100.00
15308;BME280;7755;52.208;6.964;2023-03-03T09:39:56;102278.38;;;3.73;100.00
15308;BME280;7755;52.208;6.964;2023-03-03T09:44:14;102278.00;;;3.68;100.00
15308;BME280;7755;52.208;6.964;2023-03-03T09:48:32;102283.97;;;3.80;100.00
15308;BME280;7755;52.208;6.964;2023-03-03T09:52:51;102291.09;;;3.89;100.00
15308;BME280;7755;52.208;6.964;2023-03-03T09:57:04;102291.69;;;4.01;100.00
15308;BME280;7755;52.208;6.964;2023-03-03T10:01:31;102296.28;;;4.08;100.00
15308;BME280;7755;52.208;6.964;2023-03-03T10:05:42;102289.41;;;4.14;100.00
15308;BME280;7755;52.208;6.964;2023-03-03T10:10:05;102296.53;;;4.23;100.00
15308;BME280;7755;52.208;6.964;2023-03-03T10:14:25;102294.06;;;4.38;100.00
15308;BME280;7755;52.208;6.964;2023-03-03T10:18:38;102294.94;;;4.47;100.00
15308;BME280;7755;52.208;6.964;2023-03-03T10:22:50;102294.66;;;4.58;100.00
15308;BME280;7755;52.208;6.964;2023-03-03T10:27:07;102294.06;;;4.72;100.00
15308;BME280;7755;52.208;6.964;2023-03-03T10:31:25;102305.69;;;4.81;100.00
15308;BME280;7755;52.208;6.964;2023-03-03T10:36:00;102304.06;;;4.96;100.00
15308;BME280;7755;52.208;6.964;2023-03-03T10:40:16;102300.56;;;5.04;100.00
15308;BME280;7755;52.208;6.964;2023-03-03T10:44:44;102304.94;;;5.05;100.00
15308;BME280;7755;52.208;6.964;2023-03-03T10:49:07;102307.16;;;5.17;100.00
15308;BME280;7755;52.208;6.964;2023-03-03T10:53:20;102302.31;;;5.45;100.00
15308;BME280;7755;52.208;6.964;2023-03-03T10:57:30;102291.84;;;5.67;100.00
15308;BME280;7755;52.208;6.964;2023-03-03T11:01:47;102293.53;;;5.84;100.00
15308;BME280;7755;52.208;6.964;2023-03-03T11:05:54;102296.25;;;5.84;99.88
15308;BME280;7755;52.208;6.964;2023-03-03T11:10:08;102288.47;;;5.81;98.49
15308;BME280;7755;52.208;6.964;2023-03-03T11:14:22;102282.06;;;5.98;98.96
15308;BME280;7755;52.208;6.964;2023-03-03T11:18:46;102275.75;;;6.22;98.99
15308;BME280;7755;52.208;6.964;2023-03-03T11:22:56;102266.22;;;6.51;96.92
15308;BME280;7755;52.208;6.964;2023-03-03T11:27:39;102275.00;;;6.84;96.15
15308;BME280;7755;52.208;6.964;2023-03-03T11:31:55;102268.22;;;7.19;94.35
15308;BME280;7755;52.208;6.964;2023-03-03T11:36:08;102266.09;;;7.52;92.80
15308;BME280;7755;52.208;6.964;2023-03-03T11:40:17;102262.63;;;7.81;91.89
15308;BME280;7755;52.208;6.964;2023-03-03T11:44:26;102257.97;;;8.19;89.61
15308;BME280;7755;52.208;6.964;2023-03-03T11:48:35;102262.13;;;8.45;87.04
15308;BME280;7755;52.208;6.964;2023-03-03T11:52:44;102254.72;;;8.68;85.28
15308;BME280;7755;52.208;6.964;2023-03-03T11:56:53;102254.78;;;8.75;83.22
15308;BME280;7755;52.208;6.964;2023-03-03T12:01:07;102253.63;;;8.84;82.49
15308;BME280;7755;52.208;6.964;2023-03-03T12:05:18;102249.75;;;9.08;82.29
15308;BME280;7755;52.208;6.964;2023-03-03T12:09:39;102233.41;;;9.23;79.81
15308;BME280;7755;52.208;6.964;2023-03-03T12:13:53;102236.63;;;9.61;79.16
15308;BME280;7755;52.208;6.964;2023-03-03T12:18:30;102229.78;;;9.93;76.15
15308;BME280;7755;52.208;6.964;2023-03-03T12:22:41;102223.88;;;10.18;76.01
15308;BME280;7755;52.208;6.964;2023-03-03T12:27:15;102224.81;;;9.97;72.71
15308;BME280;7755;52.208;6.964;2023-03-03T12:31:29;102219.41;;;9.75;73.32
15308;BME280;7755;52.208;6.964;2023-03-03T12:35:41;102211.75;;;9.85;72.49
15308;BME280;7755;52.208;6.964;2023-03-03T12:39:54;102203.81;;;10.19;72.68
15308;BME280;7755;52.208;6.964;2023-03-03T12:44:05;102203.00;;;10.66;72.19
15308;BME280;7755;52.208;6.964;2023-03-03T12:48:15;102202.91;;;11.14;71.53
15308;BME280;7755;52.208;6.964;2023-03-03T12:52:26;102194.94;;;11.12;67.28
15308;BME280;7755;52.208;6.964;2023-03-03T12:56:35;102185.31;;;11.30;66.34
15308;BME280;7755;52.208;6.964;2023-03-03T13:00:48;102195.78;;;11.19;66.23
15308;BME280;7755;52.208;6.964;2023-03-03T13:05:01;102193.66;;;11.02;66.23
15308;BME280;7755;52.208;6.964;2023-03-03T13:09:17;102173.19;;;11.26;66.17
15308;BME280;7755;52.208;6.964;2023-03-03T13:13:27;102171.91;;;11.41;63.53
15308;BME280;7755;52.208;6.964;2023-03-03T13:17:36;102168.56;;;11.53;63.60
15308;BME280;7755;52.208;6.964;2023-03-03T13:21:46;102168.72;;;10.78;62.64
15308;BME280;7755;52.208;6.964;2023-03-03T13:25:55;102158.34;;;10.41;63.39
15308;BME280;7755;52.208;6.964;2023-03-03T13:30:02;102167.50;;;10.26;64.48
15308;BME280;7755;52.208;6.964;2023-03-03T13:34:13;102166.97;;;10.09;65.03
15308;BME280;7755;52.208;6.964;2023-03-03T13:38:21;102167.44;;;9.78;65.08
15308;BME280;7755;52.208;6.964;2023-03-03T13:42:30;102164.38;;;9.60;66.93
15308;BME280;7755;52.208;6.964;2023-03-03T13:46:40;102146.34;;;9.52;67.66
15308;BME280;7755;52.208;6.964;2023-03-03T13:50:50;102151.31;;;9.42;65.84
15308;BME280;7755;52.208;6.964;2023-03-03T13:55:09;102158.13;;;9.10;66.08
15308;BME280;7755;52.208;6.964;2023-03-03T13:59:22;102151.28;;;8.93;65.73
15308;BME280;7755;52.208;6.964;2023-03-03T14:03:43;102148.84;;;8.77;66.74
15308;BME280;7755;52.208;6.964;2023-03-03T14:07:56;102151.81;;;8.82;67.81
15308;BME280;7755;52.208;6.964;2023-03-03T14:12:28;102149.09;;;8.82;67.82
15308;BME280;7755;52.208;6.964;2023-03-03T14:16:49;102152.75;;;8.53;68.97
15308;BME280;7755;52.208;6.964;2023-03-03T14:20:55;102148.41;;;8.37;70.30
15308;BME280;7755;52.208;6.964;2023-03-03T14:25:04;102142.03;;;8.30;71.29
15308;BME280;7755;52.208;6.964;2023-03-03T14:29:18;102131.88;;;8.17;71.87
15308;BME280;7755;52.208;6.964;2023-03-03T14:33:28;102135.06;;;8.20;72.15
15308;BME280;7755;52.208;6.964;2023-03-03T14:37:42;102136.13;;;8.26;72.27
15308;BME280;7755;52.208;6.964;2023-03-03T14:41:47;102132.22;;;8.29;72.56
15308;BME280;7755;52.208;6.964;2023-03-03T14:45:53;102127.69;;;8.14;73.82
15308;BME280;7755;52.208;6.964;2023-03-03T14:49:57;102119.16;;;8.17;74.54
15308;BME280;7755;52.208;6.964;2023-03-03T14:54:08;102111.03;;;8.17;74.80
15308;BME280;7755;52.208;6.964;2023-03-03T14:58:30;102117.97;;;8.05;74.94
15308;BME280;7755;52.208;6.964;2023-03-03T15:02:39;102119.75;;;7.98;74.49
15308;BME280;7755;52.208;6.964;2023-03-03T15:06:44;102124.97;;;7.85;75.53
15308;BME280;7755;52.208;6.964;2023-03-03T15:10:48;102123.97;;;7.86;76.27
15308;BME280;7755;52.208;6.964;2023-03-03T15:15:01;102115.06;;;7.92;76.92
15308;BME280;7755;52.208;6.964;2023-03-03T15:19:32;102113.50;;;7.98;77.79
15308;BME280;7755;52.208;6.964;2023-03-03T15:23:49;102110.59;;;7.99;77.19
15308;BME280;7755;52.208;6.964;2023-03-03T15:28:21;102106.31;;;7.75;77.26
15308;BME280;7755;52.208;6.964;2023-03-03T15:32:32;102106.44;;;7.67;77.04
15308;BME280;7755;52.208;6.964;2023-03-03T15:36:42;102101.13;;;7.59;76.99
15308;BME280;7755;52.208;6.964;2023-03-03T15:40:54;102097.53;;;7.58;77.33
15308;BME280;7755;52.208;6.964;2023-03-03T15:45:09;102091.69;;;7.55;77.17
15308;BME280;7755;52.208;6.964;2023-03-03T15:49:28;102094.00;;;7.58;77.06
15308;BME280;7755;52.208;6.964;2023-03-03T15:54:10;102084.59;;;7.54;76.15
15308;BME280;7755;52.208;6.964;2023-03-03T15:58:36;102083.91;;;7.52;74.16
15308;BME280;7755;52.208;6.964;2023-03-03T16:02:47;102077.75;;;7.58;73.50
15308;BME280;7755;52.208;6.964;2023-03-03T16:06:59;102079.19;;;7.54;73.61
15308;BME280;7755;52.208;6.964;2023-03-03T16:11:08;102081.03;;;7.53;73.95
15308;BME280;7755;52.208;6.964;2023-03-03T16:15:20;102084.50;;;7.47;73.48
15308;BME280;7755;52.208;6.964;2023-03-03T16:19:35;102081.50;;;7.42;74.24
15308;BME280;7755;52.208;6.964;2023-03-03T16:23:47;102083.16;;;7.43;75.08
15308;BME280;7755;52.208;6.964;2023-03-03T16:28:11;102085.31;;;7.33;75.66
15308;BME280;7755;52.208;6.964;2023-03-03T16:32:20;102080.56;;;7.35;75.71
15308;BME280;7755;52.208;6.964;2023-03-03T16:36:31;102082.97;;;7.45;75.65
15308;BME280;7755;52.208;6.964;2023-03-03T16:40:45;102085.88;;;7.43;76.55
15308;BME280;7755;52.208;6.964;2023-03-03T16:45:14;102084.50;;;7.32;76.48
15308;BME280;7755;52.208;6.964;2023-03-03T16:49:38;102083.66;;;7.32;78.16
15308;BME280;7755;52.208;6.964;2023-03-03T16:53:56;102073.94;;;7.37;78.41
15308;BME280;7755;52.208;6.964;2023-03-03T16:58:20;102085.78;;;7.36;78.19
15308;BME280;7755;52.208;6.964;2023-03-03T17:02:53;102087.66;;;7.36;78.41
15308;BME280;7755;52.208;6.964;2023-03-03T17:07:07;102096.16;;;7.33;79.24
15308;BME280;7755;52.208;6.964;2023-03-03T17:11:20;102091.47;;;7.27;80.35
15308;BME280;7755;52.208;6.964;2023-03-03T17:15:37;102097.22;;;7.24;80.96
15308;BME280;7755;52.208;6.964;2023-03-03T17:20:01;102095.00;;;7.27;80.97
15308;BME280;7755;52.208;6.964;2023-03-03T17:24:18;102096.03;;;7.26;81.51
15308;BME280;7755;52.208;6.964;2023-03-03T17:28:45;102099.78;;;7.25;81.94
15308;BME280;7755;52.208;6.964;2023-03-03T17:33:08;102107.72;;;7.27;82.05
15308;BME280;7755;52.208;6.964;2023-03-03T17:37:23;102094.81;;;7.29;82.35
15308;BME280;7755;52.208;6.964;2023-03-03T17:41:39;102100.03;;;7.30;82.68
15308;BME280;7755;52.208;6.964;2023-03-03T17:45:50;102103.88;;;7.21;83.67
15308;BME280;7755;52.208;6.964;2023-03-03T17:50:09;102114.56;;;7.15;84.05
15308;BME280;7755;52.208;6.964;2023-03-03T17:54:40;102112.59;;;7.08;82.57
15308;BME280;7755;52.208;6.964;2023-03-03T18:03:40;102112.16;;;7.05;81.69
15308;BME280;7755;52.208;6.964;2023-03-03T18:08:01;102119.94;;;7.00;82.24
15308;BME280;7755;52.208;6.964;2023-03-03T18:12:17;102124.72;;;6.98;81.92
15308;BME280;7755;52.208;6.964;2023-03-03T18:16:31;102129.81;;;6.93;80.84
15308;BME280;7755;52.208;6.964;2023-03-03T18:25:15;102130.72;;;6.85;80.37
15308;BME280;7755;52.208;6.964;2023-03-03T18:29:26;102124.81;;;6.81;80.46
15308;BME280;7755;52.208;6.964;2023-03-03T18:33:42;102123.97;;;6.81;81.07
15308;BME280;7755;52.208;6.964;2023-03-03T18:37:52;102127.72;;;6.80;80.54
15308;BME280;7755;52.208;6.964;2023-03-03T18:42:31;102128.56;;;6.80;81.30
15308;BME280;7755;52.208;6.964;2023-03-03T18:46:56;102135.81;;;6.80;81.34
15308;BME280;7755;52.208;6.964;2023-03-03T18:51:00;102133.66;;;6.75;81.56
15308;BME280;7755;52.208;6.964;2023-03-03T18:55:28;102139.75;;;6.77;82.07
15308;BME280;7755;52.208;6.964;2023-03-03T18:59:50;102138.03;;;6.76;81.86
15308;BME280;7755;52.208;6.964;2023-03-03T19:04:02;102137.38;;;6.74;81.64
15308;BME280;7755;52.208;6.964;2023-03-03T19:08:19;102148.38;;;6.73;82.00
15308;BME280;7755;52.208;6.964;2023-03-03T19:12:47;102154.81;;;6.72;82.60
15308;BME280;7755;52.208;6.964;2023-03-03T19:16:57;102161.44;;;6.61;83.46
15308;BME280;7755;52.208;6.964;2023-03-03T19:21:03;102159.00;;;6.51;83.96
15308;BME280;7755;52.208;6.964;2023-03-03T19:25:22;102164.72;;;6.48;84.29
15308;BME280;7755;52.208;6.964;2023-03-03T19:29:59;102151.94;;;6.42;83.97
15308;BME280;7755;52.208;6.964;2023-03-03T19:34:29;102150.63;;;6.38;83.96
15308;BME280;7755;52.208;6.964;2023-03-03T19:38:57;102157.88;;;6.38;83.75
15308;BME280;7755;52.208;6.964;2023-03-03T19:43:14;102162.28;;;6.39;84.46
15308;BME280;7755;52.208;6.964;2023-03-03T19:47:30;102155.84;;;6.40;84.38
15308;BME280;7755;52.208;6.964;2023-03-03T19:51:45;102161.94;;;6.34;85.54
15308;BME280;7755;52.208;6.964;2023-03-03T19:56:02;102158.72;;;6.38;85.52
15308;BME280;7755;52.208;6.964;2023-03-03T20:00:19;102167.69;;;6.39;85.93
15308;BME280;7755;52.208;6.964;2023-03-03T20:04:35;102171.25;;;6.31;85.91
15308;BME280;7755;52.208;6.964;2023-03-03T20:08:49;102175.13;;;6.28;86.71
15308;BME280;7755;52.208;6.964;2023-03-03T20:13:08;102174.97;;;6.30;86.92
15308;BME280;7755;52.208;6.964;2023-03-03T20:17:33;102171.72;;;6.35;87.16
15308;BME280;7755;52.208;6.964;2023-03-03T20:21:43;102164.19;;;6.30;86.75
15308;BME280;7755;52.208;6.964;2023-03-03T20:25:59;102166.38;;;6.26;87.24
15308;BME280;7755;52.208;6.964;2023-03-03T20:30:26;102162.66;;;6.27;87.46
15308;BME280;7755;52.208;6.964;2023-03-03T20:34:41;102164.19;;;6.30;87.77
15308;BME280;7755;52.208;6.964;2023-03-03T20:38:55;102184.06;;;6.29;88.21
15308;BME280;7755;52.208;6.964;2023-03-03T20:43:14;102172.44;;;6.28;88.31
15308;BME280;7755;52.208;6.964;2023-03-03T20:47:30;102173.13;;;6.31;88.09
15308;BME280;7755;52.208;6.964;2023-03-03T20:51:42;102167.53;;;6.32;88.49
15308;BME280;7755;52.208;6.964;2023-03-03T20:55:55;102168.06;;;6.27;88.65
15308;BME280;7755;52.208;6.964;2023-03-03T21:00:05;102164.50;;;6.27;89.20
15308;BME280;7755;52.208;6.964;2023-03-03T21:04:21;102169.22;;;6.33;89.14
15308;BME280;7755;52.208;6.964;2023-03-03T21:08:43;102170.06;;;6.34;88.93
15308;BME280;7755;52.208;6.964;2023-03-03T21:12:46;102175.47;;;6.34;89.45
15308;BME280;7755;52.208;6.964;2023-03-03T21:16:53;102173.78;;;6.33;89.05
15308;BME280;7755;52.208;6.964;2023-03-03T21:20:57;102172.75;;;6.34;89.36
15308;BME280;7755;52.208;6.964;2023-03-03T21:25:03;102174.63;;;6.33;89.37
15308;BME280;7755;52.208;6.964;2023-03-03T21:29:07;102175.81;;;6.31;89.78
15308;BME280;7755;52.208;6.964;2023-03-03T21:33:38;102168.75;;;6.21;90.67
15308;BME280;7755;52.208;6.964;2023-03-03T21:37:44;102172.97;;;6.24;90.79
15308;BME280;7755;52.208;6.964;2023-03-03T21:41:52;102161.50;;;6.22;90.95
15308;BME280;7755;52.208;6.964;2023-03-03T21:45:56;102165.91;;;6.15;91.61
15308;BME280;7755;52.208;6.964;2023-03-03T21:50:01;102158.84;;;6.14;91.89
15308;BME280;7755;52.208;6.964;2023-03-03T21:54:04;102156.47;;;6.19;91.84
15308;BME280;7755;52.208;6.964;2023-03-03T21:58:07;102145.66;;;6.19;91.77
15308;BME280;7755;52.208;6.964;2023-03-03T22:02:10;102142.97;;;6.19;92.09
15308;BME280;7755;52.208;6.964;2023-03-03T22:06:15;102142.97;;;6.19;91.79
15308;BME280;7755;52.208;6.964;2023-03-03T22:10:18;102140.78;;;6.14;92.39
15308;BME280;7755;52.208;6.964;2023-03-03T22:14:23;102145.47;;;6.20;92.11
15308;BME280;7755;52.208;6.964;2023-03-03T22:18:28;102141.09;;;6.19;92.24
15308;BME280;7755;52.208;6.964;2023-03-03T22:22:33;102141.94;;;6.20;92.56
15308;BME280;7755;52.208;6.964;2023-03-03T22:26:36;102143.78;;;6.19;92.40
15308;BME280;7755;52.208;6.964;2023-03-03T22:30:41;102147.16;;;6.21;92.67